createdAt,value
2019-03-20T00:01:40.000Z,101835
2019-03-20T00:03:55.000Z,101838
2019-03-20T00:05:40.000Z,101836
2019-03-20T00:06:55.000Z,101839
2019-03-20T00:08:55.000Z,101837
2019-03-20T00:10:55.000Z,101837
2019-03-20T00:11:55.000Z,101837
2019-03-20T00:13:55.000Z,101836
2019-03-20T00:14:55.000Z,101835
2019-03-20T00:16:55.000Z,101833
2019-03-20T00:18:55.000Z,101831
2019-03-20T00:20:55.000Z,101835
2019-03-20T00:21:55.000Z,101840
2019-03-20T00:23:40.000Z,101837
2019-03-20T00:24:55.000Z,101833
2019-03-20T00:25:55.000Z,101835
2019-03-20T00:27:40.000Z,101840
2019-03-20T00:28:40.000Z,101843
2019-03-20T00:29:55.000Z,101850
2019-03-20T00:31:55.000Z,101845
2019-03-20T00:33:55.000Z,101845
2019-03-20T00:34:55.000Z,101843
2019-03-20T00:36:40.000Z,101836
2019-03-20T00:37:55.000Z,101841
2019-03-20T00:39:55.000Z,101843
2019-03-20T00:41:55.000Z,101842
2019-03-20T00:42:55.000Z,101844
2019-03-20T00:43:55.000Z,101846
2019-03-20T00:44:55.000Z,101846
2019-03-20T00:46:24.000Z,101843
2019-03-20T00:47:55.000Z,101839
2019-03-20T00:49:55.000Z,101842
2019-03-20T00:51:39.000Z,101844
2019-03-20T00:52:55.000Z,101848
2019-03-20T00:54:55.000Z,101843
2019-03-20T00:56:55.000Z,101839
2019-03-20T00:57:55.000Z,101835
2019-03-20T00:59:55.000Z,101837
2019-03-20T01:01:55.000Z,101835
2019-03-20T01:03:55.000Z,101835
2019-03-20T01:04:55.000Z,101832
2019-03-20T01:06:55.000Z,101828
2019-03-20T01:07:55.000Z,101830
2019-03-20T01:09:55.000Z,101825
2019-03-20T01:11:55.000Z,101821
2019-03-20T01:13:55.000Z,101827
2019-03-20T01:14:55.000Z,101830
2019-03-20T01:16:55.000Z,101823
2019-03-20T01:17:55.000Z,101828
2019-03-20T01:18:55.000Z,101824
2019-03-20T01:20:54.000Z,101823
2019-03-20T01:21:55.000Z,101820
2019-03-20T01:23:55.000Z,101830
2019-03-20T01:24:55.000Z,101832
2019-03-20T01:26:55.000Z,101834
2019-03-20T01:28:55.000Z,101843
2019-03-20T01:29:55.000Z,101841
2019-03-20T01:31:55.000Z,101849
2019-03-20T01:32:55.000Z,101848
2019-03-20T01:34:39.000Z,101847
2019-03-20T01:35:55.000Z,101839
2019-03-20T01:37:55.000Z,101838
2019-03-20T01:39:55.000Z,101838
2019-03-20T01:41:55.000Z,101835
2019-03-20T01:43:54.000Z,101841
2019-03-20T01:44:55.000Z,101838
2019-03-20T01:46:54.000Z,101836
2019-03-20T01:48:54.000Z,101835
2019-03-20T01:50:54.000Z,101830
2019-03-20T01:52:54.000Z,101838
2019-03-20T01:53:54.000Z,101835
2019-03-20T01:54:54.000Z,101835
2019-03-20T01:56:54.000Z,101835
2019-03-20T01:58:39.000Z,101831
2019-03-20T01:59:54.000Z,101833
2019-03-20T02:01:54.000Z,101835
2019-03-20T02:03:39.000Z,101833
2019-03-20T02:05:24.000Z,101842
2019-03-20T02:06:54.000Z,101840
2019-03-20T02:07:54.000Z,101842
2019-03-20T02:09:39.000Z,101843
2019-03-20T02:10:54.000Z,101843
2019-03-20T02:11:54.000Z,101839
2019-03-20T02:13:54.000Z,101838
2019-03-20T02:14:54.000Z,101844
2019-03-20T02:16:54.000Z,101840
2019-03-20T02:17:54.000Z,101851
2019-03-20T02:19:54.000Z,101845
2019-03-20T02:21:54.000Z,101839
2019-03-20T02:23:54.000Z,101844
2019-03-20T02:24:54.000Z,101841
2019-03-20T02:26:54.000Z,101846
2019-03-20T02:28:54.000Z,101850
2019-03-20T02:30:39.000Z,101856
2019-03-20T02:31:54.000Z,101846
2019-03-20T02:32:54.000Z,101846
2019-03-20T02:33:54.000Z,101844
2019-03-20T02:35:39.000Z,101839
2019-03-20T02:36:54.000Z,101841
2019-03-20T02:37:54.000Z,101838
2019-03-20T02:38:54.000Z,101840
2019-03-20T02:39:54.000Z,101846
2019-03-20T02:41:54.000Z,101850
2019-03-20T02:43:54.000Z,101848
2019-03-20T02:44:54.000Z,101849
2019-03-20T02:45:54.000Z,101847
2019-03-20T02:47:39.000Z,101845
2019-03-20T02:48:54.000Z,101855
2019-03-20T02:50:54.000Z,101847
2019-03-20T02:52:54.000Z,101845
2019-03-20T02:53:54.000Z,101845
2019-03-20T02:55:55.000Z,101840
2019-03-20T02:57:39.000Z,101840
2019-03-20T02:58:54.000Z,101839
2019-03-20T02:59:54.000Z,101838
2019-03-20T03:01:39.000Z,101836
2019-03-20T03:02:54.000Z,101842
2019-03-20T03:03:54.000Z,101838
2019-03-20T03:04:54.000Z,101840
2019-03-20T03:06:54.000Z,101839
2019-03-20T03:08:39.000Z,101850
2019-03-20T03:09:54.000Z,101840
2019-03-20T03:11:54.000Z,101841
2019-03-20T03:13:54.000Z,101840
2019-03-20T03:15:54.000Z,101841
2019-03-20T03:17:54.000Z,101840
2019-03-20T03:19:54.000Z,101839
2019-03-20T03:21:39.000Z,101838
2019-03-20T03:22:54.000Z,101840
2019-03-20T03:24:54.000Z,101839
2019-03-20T03:25:54.000Z,101834
2019-03-20T03:26:54.000Z,101836
2019-03-20T03:28:54.000Z,101836
2019-03-20T03:29:55.000Z,101841
2019-03-20T03:31:39.000Z,101837
2019-03-20T03:32:54.000Z,101841
2019-03-20T03:34:39.000Z,101837
2019-03-20T03:35:54.000Z,101841
2019-03-20T03:37:55.000Z,101842
2019-03-20T03:39:54.000Z,101846
2019-03-20T03:40:55.000Z,101846
2019-03-20T03:42:54.000Z,101852
2019-03-20T03:44:54.000Z,101850
2019-03-20T03:45:54.000Z,101846
2019-03-20T03:46:54.000Z,101849
2019-03-20T03:47:55.000Z,101850
2019-03-20T03:49:54.000Z,101855
2019-03-20T03:50:55.000Z,101854
2019-03-20T03:52:55.000Z,101855
2019-03-20T03:54:54.000Z,101856
2019-03-20T03:56:54.000Z,101856
2019-03-20T03:57:54.000Z,101864
2019-03-20T03:58:54.000Z,101865
2019-03-20T03:59:54.000Z,101863
2019-03-20T04:01:54.000Z,101872
2019-03-20T04:02:54.000Z,101860
2019-03-20T04:04:54.000Z,101861
2019-03-20T04:06:24.000Z,101861
2019-03-20T04:07:39.000Z,101862
2019-03-20T04:08:54.000Z,101865
2019-03-20T04:10:39.000Z,101869
2019-03-20T04:11:54.000Z,101865
2019-03-20T04:13:39.000Z,101863
2019-03-20T04:14:54.000Z,101865
2019-03-20T04:16:54.000Z,101864
2019-03-20T04:17:54.000Z,101865
2019-03-20T04:19:39.000Z,101859
2019-03-20T04:20:54.000Z,101858
2019-03-20T04:22:54.000Z,101863
2019-03-20T04:24:39.000Z,101866
2019-03-20T04:26:54.000Z,101860
2019-03-20T04:28:54.000Z,101865
2019-03-20T04:29:54.000Z,101870
2019-03-20T04:31:54.000Z,101871
2019-03-20T04:33:39.000Z,101865
2019-03-20T04:34:54.000Z,101865
2019-03-20T04:36:39.000Z,101870
2019-03-20T04:38:54.000Z,101875
2019-03-20T04:39:54.000Z,101874
2019-03-20T04:41:54.000Z,101881
2019-03-20T04:42:54.000Z,101875
2019-03-20T04:44:54.000Z,101881
2019-03-20T04:45:54.000Z,101881
2019-03-20T04:47:54.000Z,101883
2019-03-20T04:49:54.000Z,101872
2019-03-20T04:50:54.000Z,101879
2019-03-20T04:52:54.000Z,101870
2019-03-20T04:54:24.000Z,101873
2019-03-20T04:55:54.000Z,101873
2019-03-20T04:57:55.000Z,101869
2019-03-20T04:59:55.000Z,101865
2019-03-20T05:00:55.000Z,101872
2019-03-20T05:02:55.000Z,101868
2019-03-20T05:04:55.000Z,101875
2019-03-20T05:05:55.000Z,101875
2019-03-20T05:07:55.000Z,101875
2019-03-20T05:09:55.000Z,101872
2019-03-20T05:11:55.000Z,101877
2019-03-20T05:12:55.000Z,101868
2019-03-20T05:14:55.000Z,101866
2019-03-20T05:16:55.000Z,101863
2019-03-20T05:17:55.000Z,101867
2019-03-20T05:19:55.000Z,101868
2019-03-20T05:21:24.000Z,101864
2019-03-20T05:22:55.000Z,101868
2019-03-20T05:23:55.000Z,101868
2019-03-20T05:24:55.000Z,101873
2019-03-20T05:26:55.000Z,101874
2019-03-20T05:28:55.000Z,101871
2019-03-20T05:30:40.000Z,101872
2019-03-20T05:31:55.000Z,101879
2019-03-20T05:32:55.000Z,101881
2019-03-20T05:34:55.000Z,101889
2019-03-20T05:36:55.000Z,101899
2019-03-20T05:37:55.000Z,101897
2019-03-20T05:39:55.000Z,101896
2019-03-20T05:41:55.000Z,101898
2019-03-20T05:43:55.000Z,101898
2019-03-20T05:45:55.000Z,101898
2019-03-20T05:47:55.000Z,101905
2019-03-20T05:49:55.000Z,101899
2019-03-20T05:51:39.000Z,101896
2019-03-20T05:52:55.000Z,101898
2019-03-20T05:53:55.000Z,101894
2019-03-20T05:55:55.000Z,101902
2019-03-20T05:57:55.000Z,101909
2019-03-20T05:59:55.000Z,101912
2019-03-20T06:01:55.000Z,101915
2019-03-20T06:03:54.000Z,101918
2019-03-20T06:05:55.000Z,101916
2019-03-20T06:07:55.000Z,101919
2019-03-20T06:09:55.000Z,101921
2019-03-20T06:11:55.000Z,101929
2019-03-20T06:13:55.000Z,101928
2019-03-20T06:14:55.000Z,101928
2019-03-20T06:16:55.000Z,101929
2019-03-20T06:17:55.000Z,101921
2019-03-20T06:18:55.000Z,101924
2019-03-20T06:20:55.000Z,101925
2019-03-20T06:22:39.000Z,101925
2019-03-20T06:24:55.000Z,101921
2019-03-20T06:25:55.000Z,101928
2019-03-20T06:27:55.000Z,101931
2019-03-20T06:28:55.000Z,101924
2019-03-20T06:29:55.000Z,101923
2019-03-20T06:31:39.000Z,101919
2019-03-20T06:32:55.000Z,101924
2019-03-20T06:34:55.000Z,101913
2019-03-20T06:35:55.000Z,101922
2019-03-20T06:36:55.000Z,101924
2019-03-20T06:38:54.000Z,101927
2019-03-20T06:39:55.000Z,101932
2019-03-20T06:41:55.000Z,101936
2019-03-20T06:43:55.000Z,101937
2019-03-20T06:45:55.000Z,101931
2019-03-20T06:47:55.000Z,101941
2019-03-20T06:49:39.000Z,101940
2019-03-20T06:50:55.000Z,101940
2019-03-20T06:52:55.000Z,101930
2019-03-20T06:53:55.000Z,101944
2019-03-20T06:55:39.000Z,101947
2019-03-20T06:56:55.000Z,101952
2019-03-20T06:58:55.000Z,101953
2019-03-20T07:00:55.000Z,101949
2019-03-20T07:02:55.000Z,101957
2019-03-20T07:04:55.000Z,101960
2019-03-20T07:06:55.000Z,101957
2019-03-20T07:08:39.000Z,101959
2019-03-20T07:09:55.000Z,101955
2019-03-20T07:11:55.000Z,101962
2019-03-20T07:13:55.000Z,101967
2019-03-20T07:14:55.000Z,101967
2019-03-20T07:16:55.000Z,101968
2019-03-20T07:18:55.000Z,101964
2019-03-20T07:20:39.000Z,101964
2019-03-20T07:21:55.000Z,101970
2019-03-20T07:23:55.000Z,101966
2019-03-20T07:25:55.000Z,101969
2019-03-20T07:27:39.000Z,101961
2019-03-20T07:28:55.000Z,101961
2019-03-20T07:30:24.000Z,101966
2019-03-20T07:31:55.000Z,101962
2019-03-20T07:33:39.000Z,101961
2019-03-20T07:34:55.000Z,101959
2019-03-20T07:35:55.000Z,101960
2019-03-20T07:37:55.000Z,101968
2019-03-20T07:39:55.000Z,101965
2019-03-20T07:41:39.000Z,101974
2019-03-20T07:42:55.000Z,101972
2019-03-20T07:44:55.000Z,101969
2019-03-20T07:48:01.000Z,101968
2019-03-20T07:49:45.000Z,101978
2019-03-20T07:51:01.000Z,101973
2019-03-20T07:52:01.000Z,101977
2019-03-20T07:53:46.000Z,101978
2019-03-20T07:55:01.000Z,101975
2019-03-20T07:56:01.000Z,101973
2019-03-20T07:58:01.000Z,101980
2019-03-20T08:00:01.000Z,101978
2019-03-20T08:02:01.000Z,101974
2019-03-20T08:03:45.000Z,101970
2019-03-20T08:05:01.000Z,101974
2019-03-20T08:07:01.000Z,101987
2019-03-20T08:08:01.000Z,101986
2019-03-20T08:09:32.000Z,101986
2019-03-20T08:11:02.000Z,101997
2019-03-20T08:12:02.000Z,101992
2019-03-20T08:14:02.000Z,101988
2019-03-20T08:16:02.000Z,101997
2019-03-20T08:18:02.000Z,101992
2019-03-20T08:19:02.000Z,102002
2019-03-20T08:21:02.000Z,101998
2019-03-20T08:22:02.000Z,102004
2019-03-20T08:23:02.000Z,102010
2019-03-20T08:24:02.000Z,102005
2019-03-20T08:26:02.000Z,102013
2019-03-20T08:28:02.000Z,102016
2019-03-20T08:29:02.000Z,102015
2019-03-20T08:31:02.000Z,102015
2019-03-20T08:32:47.000Z,102025
2019-03-20T08:34:02.000Z,102018
2019-03-20T08:36:02.000Z,102019
2019-03-20T08:37:02.000Z,102022
2019-03-20T08:39:02.000Z,102023
2019-03-20T08:41:02.000Z,102021
2019-03-20T08:42:02.000Z,102023
2019-03-20T08:44:02.000Z,102019
2019-03-20T08:45:47.000Z,102021
2019-03-20T08:47:02.000Z,102029
2019-03-20T08:48:02.000Z,102018
2019-03-20T08:49:46.000Z,102021
2019-03-20T08:51:02.000Z,102021
2019-03-20T08:52:47.000Z,102028
2019-03-20T08:54:02.000Z,102033
2019-03-20T08:55:46.000Z,102023
2019-03-20T08:57:02.000Z,102031
2019-03-20T08:58:02.000Z,102038
2019-03-20T09:00:02.000Z,102036
2019-03-20T09:01:31.000Z,102034
2019-03-20T09:03:02.000Z,102036
2019-03-20T09:05:02.000Z,102036
2019-03-20T09:07:02.000Z,102035
2019-03-20T09:08:47.000Z,102028
2019-03-20T09:10:02.000Z,102027
2019-03-20T09:11:02.000Z,102025
2019-03-20T09:13:02.000Z,102023
2019-03-20T09:14:02.000Z,102030
2019-03-20T09:15:02.000Z,102027
2019-03-20T09:16:02.000Z,102034
2019-03-20T09:18:02.000Z,102030
2019-03-20T09:20:02.000Z,102030
2019-03-20T09:21:02.000Z,102028
2019-03-20T09:23:02.000Z,102029
2019-03-20T09:24:02.000Z,102034
2019-03-20T09:26:02.000Z,102035
2019-03-20T09:28:02.000Z,102034
2019-03-20T09:29:02.000Z,102041
2019-03-20T09:31:02.000Z,102039
2019-03-20T09:32:02.000Z,102039
2019-03-20T09:33:47.000Z,102040
2019-03-20T09:36:02.000Z,102042
2019-03-20T09:37:46.000Z,102041
2019-03-20T09:40:02.000Z,102037
2019-03-20T09:41:02.000Z,102033
2019-03-20T09:43:02.000Z,102028
2019-03-20T09:45:02.000Z,102027
2019-03-20T09:47:02.000Z,102023
2019-03-20T09:49:02.000Z,102031
2019-03-20T09:51:02.000Z,102028
2019-03-20T09:53:02.000Z,102025
2019-03-20T09:55:02.000Z,102032
2019-03-20T09:56:02.000Z,102034
2019-03-20T09:58:02.000Z,102034
2019-03-20T10:00:02.000Z,102038
2019-03-20T10:01:02.000Z,102034
2019-03-20T10:02:02.000Z,102035
2019-03-20T10:04:02.000Z,102035
2019-03-20T10:06:02.000Z,102037
2019-03-20T10:08:02.000Z,102025
2019-03-20T10:10:02.000Z,102033
2019-03-20T10:11:02.000Z,102033
2019-03-20T10:13:02.000Z,102035
2019-03-20T10:14:47.000Z,102036
2019-03-20T10:16:02.000Z,102030
2019-03-20T10:18:01.000Z,102027
2019-03-20T10:20:01.000Z,102025
2019-03-20T10:21:46.000Z,102022
2019-03-20T10:23:01.000Z,102031
2019-03-20T10:24:01.000Z,102026
2019-03-20T10:25:01.000Z,102022
2019-03-20T10:27:01.000Z,102022
2019-03-20T10:29:01.000Z,102026
2019-03-20T10:30:01.000Z,102030
2019-03-20T10:32:01.000Z,102033
2019-03-20T10:33:46.000Z,102026
2019-03-20T10:35:46.000Z,102031
2019-03-20T10:38:01.000Z,102035
2019-03-20T10:39:31.000Z,102035
2019-03-20T10:41:01.000Z,102030
2019-03-20T10:42:01.000Z,102029
2019-03-20T10:43:46.000Z,102033
2019-03-20T10:45:01.000Z,102031
2019-03-20T10:46:46.000Z,102026
2019-03-20T10:48:01.000Z,102026
2019-03-20T10:50:01.000Z,102034
2019-03-20T10:51:01.000Z,102039
2019-03-20T10:53:01.000Z,102032
2019-03-20T10:55:01.000Z,102040
2019-03-20T10:56:01.000Z,102030
2019-03-20T10:57:01.000Z,102037
2019-03-20T10:59:01.000Z,102035
2019-03-20T11:01:01.000Z,102034
2019-03-20T11:03:01.000Z,102041
2019-03-20T11:04:01.000Z,102040
2019-03-20T11:06:01.000Z,102040
2019-03-20T11:08:01.000Z,102047
2019-03-20T11:10:01.000Z,102050
2019-03-20T11:11:46.000Z,102058
2019-03-20T11:13:01.000Z,102051
2019-03-20T11:14:46.000Z,102047
2019-03-20T11:16:01.000Z,102047
2019-03-20T11:18:01.000Z,102057
2019-03-20T11:20:01.000Z,102055
2019-03-20T11:22:02.000Z,102059
2019-03-20T11:24:02.000Z,102059
2019-03-20T11:25:46.000Z,102052
2019-03-20T11:27:02.000Z,102055
2019-03-20T11:29:02.000Z,102060
2019-03-20T11:30:02.000Z,102061
2019-03-20T11:32:02.000Z,102057
2019-03-20T11:33:02.000Z,102051
2019-03-20T11:35:02.000Z,102052
2019-03-20T11:36:02.000Z,102056
2019-03-20T11:37:46.000Z,102051
2019-03-20T11:39:02.000Z,102051
2019-03-20T11:41:02.000Z,102055
2019-03-20T11:43:02.000Z,102059
2019-03-20T11:45:02.000Z,102051
2019-03-20T11:46:02.000Z,102049
2019-03-20T11:47:02.000Z,102055
2019-03-20T11:48:32.000Z,102056
2019-03-20T11:50:02.000Z,102058
2019-03-20T11:51:02.000Z,102061
2019-03-20T11:53:02.000Z,102054
2019-03-20T11:55:02.000Z,102053
2019-03-20T11:57:02.000Z,102058
2019-03-20T11:59:02.000Z,102056
2019-03-20T12:00:46.000Z,102055
2019-03-20T12:02:02.000Z,102052
2019-03-20T12:03:46.000Z,102056
2019-03-20T12:06:02.000Z,102054
2019-03-20T12:08:02.000Z,102059
2019-03-20T12:09:02.000Z,102062
2019-03-20T12:11:02.000Z,102072
2019-03-20T12:12:02.000Z,102061
2019-03-20T12:14:02.000Z,102063
2019-03-20T12:15:02.000Z,102064
2019-03-20T12:17:02.000Z,102064
2019-03-20T12:19:02.000Z,102062
2019-03-20T12:21:02.000Z,102073
2019-03-20T12:22:02.000Z,102072
2019-03-20T12:23:32.000Z,102073
2019-03-20T12:25:02.000Z,102072
2019-03-20T12:26:02.000Z,102076
2019-03-20T12:27:02.000Z,102072
2019-03-20T12:29:02.000Z,102078
2019-03-20T12:30:46.000Z,102074
2019-03-20T12:32:02.000Z,102078
2019-03-20T12:34:02.000Z,102071
2019-03-20T12:35:02.000Z,102073
2019-03-20T12:37:02.000Z,102074
2019-03-20T12:38:02.000Z,102068
2019-03-20T12:39:47.000Z,102069
2019-03-20T12:42:02.000Z,102068
2019-03-20T12:43:02.000Z,102073
2019-03-20T12:45:02.000Z,102073
2019-03-20T12:46:31.000Z,102072
2019-03-20T12:48:02.000Z,102069
2019-03-20T12:49:02.000Z,102067
2019-03-20T12:51:02.000Z,102072
2019-03-20T12:52:02.000Z,102086
2019-03-20T12:54:02.000Z,102064
2019-03-20T12:56:02.000Z,102067
2019-03-20T12:58:02.000Z,102076
2019-03-20T12:59:02.000Z,102070
2019-03-20T13:02:02.000Z,102070
2019-03-20T13:04:02.000Z,102069
2019-03-20T13:06:02.000Z,102064
2019-03-20T13:08:02.000Z,102065
2019-03-20T13:10:02.000Z,102061
2019-03-20T13:12:02.000Z,102058
2019-03-20T13:13:02.000Z,102061
2019-03-20T13:14:02.000Z,102058
2019-03-20T13:15:02.000Z,102057
2019-03-20T13:17:02.000Z,102059
2019-03-20T13:18:02.000Z,102063
2019-03-20T13:19:02.000Z,102060
2019-03-20T13:21:02.000Z,102056
2019-03-20T13:23:02.000Z,102058
2019-03-20T13:25:02.000Z,102069
2019-03-20T13:26:46.000Z,102061
2019-03-20T13:29:01.000Z,102061
2019-03-20T13:30:46.000Z,102064
2019-03-20T13:33:01.000Z,102067
2019-03-20T13:35:00.000Z,102063
2019-03-20T13:36:00.000Z,102068
2019-03-20T13:38:00.000Z,102075
2019-03-20T13:40:00.000Z,102070
2019-03-20T13:41:00.000Z,102070
2019-03-20T13:42:01.000Z,102067
2019-03-20T13:43:01.000Z,102067
2019-03-20T13:45:00.000Z,102075
2019-03-20T13:46:00.000Z,102079
2019-03-20T13:48:00.000Z,102074
2019-03-20T13:49:00.000Z,102076
2019-03-20T13:51:00.000Z,102070
2019-03-20T13:53:00.000Z,102076
2019-03-20T13:54:01.000Z,102076
2019-03-20T13:56:00.000Z,102073
2019-03-20T13:58:00.000Z,102069
2019-03-20T13:59:00.000Z,102068
2019-03-20T14:00:01.000Z,102068
2019-03-20T14:02:00.000Z,102070
2019-03-20T14:04:00.000Z,102071
2019-03-20T14:05:00.000Z,102076
2019-03-20T14:07:01.000Z,102077
2019-03-20T14:08:45.000Z,102074
2019-03-20T14:10:00.000Z,102073
2019-03-20T14:12:00.000Z,102075
2019-03-20T14:14:00.000Z,102077
2019-03-20T14:16:00.000Z,102074
2019-03-20T14:17:00.000Z,102078
2019-03-20T14:19:00.000Z,102076
2019-03-20T14:21:00.000Z,102075
2019-03-20T14:23:00.000Z,102072
2019-03-20T14:25:00.000Z,102077
2019-03-20T14:26:00.000Z,102076
2019-03-20T14:27:01.000Z,102077
2019-03-20T14:29:00.000Z,102081
2019-03-20T14:30:30.000Z,102074
2019-03-20T14:32:02.000Z,102073
2019-03-20T14:34:02.000Z,102070
2019-03-20T14:36:02.000Z,102060
2019-03-20T14:38:02.000Z,102057
2019-03-20T14:39:02.000Z,102058
2019-03-20T14:40:32.000Z,102054
2019-03-20T14:42:01.000Z,102063
2019-03-20T14:43:02.000Z,102064
2019-03-20T14:45:02.000Z,102060
2019-03-20T14:46:02.000Z,102055
2019-03-20T14:47:32.000Z,102059
2019-03-20T14:50:02.000Z,102060
2019-03-20T14:51:02.000Z,102059
2019-03-20T14:53:02.000Z,102058
2019-03-20T14:55:02.000Z,102056
2019-03-20T14:56:02.000Z,102050
2019-03-20T14:58:02.000Z,102053
2019-03-20T15:00:02.000Z,102050
2019-03-20T15:02:02.000Z,102051
2019-03-20T15:03:47.000Z,102052
2019-03-20T15:06:02.000Z,102051
2019-03-20T15:07:46.000Z,102050
2019-03-20T15:09:02.000Z,102050
2019-03-20T15:10:31.000Z,102051
2019-03-20T15:12:02.000Z,102053
2019-03-20T15:13:46.000Z,102045
2019-03-20T15:15:02.000Z,102048
2019-03-20T15:17:02.000Z,102045
2019-03-20T15:19:02.000Z,102040
2019-03-20T15:20:02.000Z,102041
2019-03-20T15:21:46.000Z,102043
2019-03-20T15:23:02.000Z,102040
2019-03-20T15:25:02.000Z,102040
2019-03-20T15:26:02.000Z,102036
2019-03-20T15:27:46.000Z,102042
2019-03-20T15:29:02.000Z,102040
2019-03-20T15:31:02.000Z,102043
2019-03-20T15:33:02.000Z,102038
2019-03-20T15:35:02.000Z,102036
2019-03-20T15:36:02.000Z,102035
2019-03-20T15:38:02.000Z,102032
2019-03-20T15:39:02.000Z,102031
2019-03-20T15:40:47.000Z,102029
2019-03-20T15:42:02.000Z,102025
2019-03-20T15:44:02.000Z,102021
2019-03-20T15:46:02.000Z,102023
2019-03-20T15:48:02.000Z,102021
2019-03-20T15:49:02.000Z,102021
2019-03-20T15:51:02.000Z,102024
2019-03-20T15:53:02.000Z,102025
2019-03-20T15:54:02.000Z,102028
2019-03-20T15:56:02.000Z,102020
2019-03-20T15:58:02.000Z,102024
2019-03-20T16:00:02.000Z,102027
2019-03-20T16:01:47.000Z,102023
2019-03-20T16:03:02.000Z,102029
2019-03-20T16:05:02.000Z,102027
2019-03-20T16:07:02.000Z,102028
2019-03-20T16:08:02.000Z,102023
2019-03-20T16:09:47.000Z,102027
2019-03-20T16:11:02.000Z,102026
2019-03-20T16:13:02.000Z,102023
2019-03-20T16:15:02.000Z,102025
2019-03-20T16:17:02.000Z,102028
2019-03-20T16:18:02.000Z,102028
2019-03-20T16:19:32.000Z,102026
2019-03-20T16:21:02.000Z,102024
2019-03-20T16:22:02.000Z,102020
2019-03-20T16:24:02.000Z,102028
2019-03-20T16:25:02.000Z,102019
2019-03-20T16:26:47.000Z,102030
2019-03-20T16:28:02.000Z,102026
2019-03-20T16:30:02.000Z,102031
2019-03-20T16:31:02.000Z,102029
2019-03-20T16:33:02.000Z,102029
2019-03-20T16:34:47.000Z,102028
2019-03-20T16:36:02.000Z,102035
2019-03-20T16:37:47.000Z,102035
2019-03-20T16:39:02.000Z,102032
2019-03-20T16:41:02.000Z,102028
2019-03-20T16:43:02.000Z,102031
2019-03-20T16:44:02.000Z,102027
2019-03-20T16:46:02.000Z,102024
2019-03-20T16:47:02.000Z,102029
2019-03-20T16:49:02.000Z,102030
2019-03-20T16:51:02.000Z,102032
2019-03-20T16:53:02.000Z,102036
2019-03-20T16:55:02.000Z,102038
2019-03-20T16:57:02.000Z,102031
2019-03-20T16:58:02.000Z,102032
2019-03-20T16:59:46.000Z,102033
2019-03-20T17:01:02.000Z,102037
2019-03-20T17:02:46.000Z,102035
2019-03-20T17:04:02.000Z,102034
2019-03-20T17:06:02.000Z,102037
2019-03-20T17:07:46.000Z,102038
2019-03-20T17:09:02.000Z,102034
2019-03-20T17:10:02.000Z,102038
2019-03-20T17:11:32.000Z,102047
2019-03-20T17:13:02.000Z,102041
2019-03-20T17:14:02.000Z,102042
2019-03-20T17:15:02.000Z,102042
2019-03-20T17:16:02.000Z,102039
2019-03-20T17:18:02.000Z,102040
2019-03-20T17:20:02.000Z,102034
2019-03-20T17:21:46.000Z,102040
2019-03-20T17:24:02.000Z,102041
2019-03-20T17:25:02.000Z,102039
2019-03-20T17:27:02.000Z,102046
2019-03-20T17:28:02.000Z,102040
2019-03-20T17:30:02.000Z,102045
2019-03-20T17:31:02.000Z,102040
2019-03-20T17:33:02.000Z,102040
2019-03-20T17:34:02.000Z,102039
2019-03-20T17:36:02.000Z,102040
2019-03-20T17:37:02.000Z,102042
2019-03-20T17:39:02.000Z,102045
2019-03-20T17:40:46.000Z,102044
2019-03-20T17:43:02.000Z,102046
2019-03-20T17:44:02.000Z,102042
2019-03-20T17:46:02.000Z,102046
2019-03-20T17:47:02.000Z,102039
2019-03-20T17:48:31.000Z,102041
2019-03-20T17:50:02.000Z,102039
2019-03-20T17:51:47.000Z,102041
2019-03-20T17:53:02.000Z,102047
2019-03-20T17:54:47.000Z,102046
2019-03-20T17:56:02.000Z,102043
2019-03-20T17:58:02.000Z,102054
2019-03-20T18:00:02.000Z,102052
2019-03-20T18:02:02.000Z,102054
2019-03-20T18:04:02.000Z,102058
2019-03-20T18:06:02.000Z,102062
2019-03-20T18:07:02.000Z,102059
2019-03-20T18:09:02.000Z,102067
2019-03-20T18:10:32.000Z,102068
2019-03-20T18:11:47.000Z,102068
2019-03-20T18:14:02.000Z,102067
2019-03-20T18:16:02.000Z,102069
2019-03-20T18:18:02.000Z,102070
2019-03-20T18:19:02.000Z,102072
2019-03-20T18:21:02.000Z,102069
2019-03-20T18:23:02.000Z,102067
2019-03-20T18:24:47.000Z,102073
2019-03-20T18:26:02.000Z,102078
2019-03-20T18:28:02.000Z,102083
2019-03-20T18:29:02.000Z,102085
2019-03-20T18:31:02.000Z,102087
2019-03-20T18:33:02.000Z,102088
2019-03-20T18:34:02.000Z,102088
2019-03-20T18:36:02.000Z,102084
2019-03-20T18:38:02.000Z,102090
2019-03-20T18:40:02.000Z,102098
2019-03-20T18:41:47.000Z,102099
2019-03-20T18:43:32.000Z,102098
2019-03-20T18:47:32.000Z,102100
2019-03-20T18:49:17.000Z,102102
2019-03-20T18:51:02.000Z,102100
2019-03-20T18:53:17.000Z,102108
2019-03-20T18:55:02.000Z,102105
2019-03-20T18:56:02.000Z,102107
2019-03-20T18:57:17.000Z,102102
2019-03-20T18:59:17.000Z,102108
2019-03-20T19:01:17.000Z,102109
2019-03-20T19:02:17.000Z,102109
2019-03-20T19:04:17.000Z,102119
2019-03-20T19:05:48.000Z,102108
2019-03-20T19:07:02.000Z,102113
2019-03-20T19:08:48.000Z,102110
2019-03-20T19:10:17.000Z,102113
2019-03-20T19:12:02.000Z,102118
2019-03-20T19:13:17.000Z,102122
2019-03-20T19:14:17.000Z,102120
2019-03-20T19:16:17.000Z,102118
2019-03-20T19:18:17.000Z,102115
2019-03-20T19:19:17.000Z,102124
2019-03-20T19:21:02.000Z,102122
2019-03-20T19:22:17.000Z,102123
2019-03-20T19:24:17.000Z,102125
2019-03-20T19:26:17.000Z,102133
2019-03-20T19:27:17.000Z,102133
2019-03-20T19:29:02.000Z,102136
2019-03-20T19:30:17.000Z,102132
2019-03-20T19:32:17.000Z,102131
2019-03-20T19:34:17.000Z,102134
2019-03-20T19:35:17.000Z,102137
2019-03-20T19:37:17.000Z,102136
2019-03-20T19:38:17.000Z,102135
2019-03-20T19:40:17.000Z,102136
2019-03-20T19:42:17.000Z,102133
2019-03-20T19:44:02.000Z,102138
2019-03-20T19:45:17.000Z,102139
2019-03-20T19:46:17.000Z,102135
2019-03-20T19:47:17.000Z,102131
2019-03-20T19:48:17.000Z,102139
2019-03-20T19:50:17.000Z,102132
2019-03-20T19:51:17.000Z,102134
2019-03-20T19:53:17.000Z,102134
2019-03-20T19:54:17.000Z,102133
2019-03-20T19:55:17.000Z,102134
2019-03-20T19:57:17.000Z,102129
2019-03-20T19:59:17.000Z,102142
2019-03-20T20:00:17.000Z,102138
2019-03-20T20:02:02.000Z,102136
2019-03-20T20:03:17.000Z,102133
2019-03-20T20:05:17.000Z,102137
2019-03-20T20:07:02.000Z,102138
2019-03-20T20:08:02.000Z,102136
2019-03-20T20:09:17.000Z,102134